sensor_id;sensor_type;location;lat;lon;timestamp;P1;durP1;ratioP1;P2;durP2;ratioP2
39264;SDS011;42646;51.910;7.724;2023-11-21T00:00:08;11.50;;;7.57;;
39264;SDS011;42646;51.910;7.724;2023-11-21T00:02:38;12.98;;;8.30;;
39264;SDS011;42646;51.910;7.724;2023-11-21T00:05:07;13.20;;;8.43;;
39264;SDS011;42646;51.910;7.724;2023-11-21T00:07:36;14.50;;;8.77;;
39264;SDS011;42646;51.910;7.724;2023-11-21T00:10:04;14.63;;;8.43;;
39264;SDS011;42646;51.910;7.724;2023-11-21T00:12:32;13.07;;;8.15;;
39264;SDS011;42646;51.910;7.724;2023-11-21T00:15:02;13.88;;;8.23;;
39264;SDS011;42646;51.910;7.724;2023-11-21T00:17:31;13.10;;;8.82;;
39264;SDS011;42646;51.910;7.724;2023-11-21T00:19:59;11.70;;;7.70;;
39264;SDS011;42646;51.910;7.724;2023-11-21T00:22:27;10.63;;;7.57;;
39264;SDS011;42646;51.910;7.724;2023-11-21T00:24:54;14.52;;;8.40;;
39264;SDS011;42646;51.910;7.724;2023-11-21T00:27:22;11.82;;;8.02;;
39264;SDS011;42646;51.910;7.724;2023-11-21T00:29:49;11.57;;;8.07;;
39264;SDS011;42646;51.910;7.724;2023-11-21T00:32:18;12.45;;;8.70;;
39264;SDS011;42646;51.910;7.724;2023-11-21T00:34:46;12.38;;;8.23;;
39264;SDS011;42646;51.910;7.724;2023-11-21T00:37:14;12.88;;;8.52;;
39264;SDS011;42646;51.910;7.724;2023-11-21T00:39:42;11.93;;;8.25;;
39264;SDS011;42646;51.910;7.724;2023-11-21T00:42:09;12.52;;;8.90;;
39264;SDS011;42646;51.910;7.724;2023-11-21T00:44:38;12.13;;;8.75;;
39264;SDS011;42646;51.910;7.724;2023-11-21T00:47:07;13.70;;;9.20;;
39264;SDS011;42646;51.910;7.724;2023-11-21T00:49:36;11.98;;;8.50;;
39264;SDS011;42646;51.910;7.724;2023-11-21T00:52:06;12.82;;;8.57;;
39264;SDS011;42646;51.910;7.724;2023-11-21T00:54:33;12.77;;;8.52;;
39264;SDS011;42646;51.910;7.724;2023-11-21T00:57:02;14.95;;;9.90;;
39264;SDS011;42646;51.910;7.724;2023-11-21T00:59:30;14.02;;;9.35;;
39264;SDS011;42646;51.910;7.724;2023-11-21T01:01:57;13.35;;;8.93;;
39264;SDS011;42646;51.910;7.724;2023-11-21T01:04:26;12.35;;;8.43;;
39264;SDS011;42646;51.910;7.724;2023-11-21T01:06:56;13.82;;;9.48;;
39264;SDS011;42646;51.910;7.724;2023-11-21T01:09:23;12.35;;;9.10;;
39264;SDS011;42646;51.910;7.724;2023-11-21T01:11:52;12.90;;;9.18;;
39264;SDS011;42646;51.910;7.724;2023-11-21T01:14:19;14.60;;;10.40;;
39264;SDS011;42646;51.910;7.724;2023-11-21T01:16:47;12.30;;;9.55;;
39264;SDS011;42646;51.910;7.724;2023-11-21T01:19:15;11.88;;;8.68;;
39264;SDS011;42646;51.910;7.724;2023-11-21T01:21:43;12.10;;;8.80;;
39264;SDS011;42646;51.910;7.724;2023-11-21T01:24:12;12.75;;;8.38;;
39264;SDS011;42646;51.910;7.724;2023-11-21T01:26:40;13.43;;;8.68;;
39264;SDS011;42646;51.910;7.724;2023-11-21T01:29:07;14.00;;;9.40;;
39264;SDS011;42646;51.910;7.724;2023-11-21T01:31:35;13.02;;;9.23;;
39264;SDS011;42646;51.910;7.724;2023-11-21T01:34:03;12.00;;;9.05;;
39264;SDS011;42646;51.910;7.724;2023-11-21T01:36:31;13.93;;;9.63;;
39264;SDS011;42646;51.910;7.724;2023-11-21T01:38:59;14.77;;;10.00;;
39264;SDS011;42646;51.910;7.724;2023-11-21T01:41:28;12.90;;;9.88;;
39264;SDS011;42646;51.910;7.724;2023-11-21T01:43:57;13.20;;;9.70;;
39264;SDS011;42646;51.910;7.724;2023-11-21T01:46:24;13.65;;;9.43;;
39264;SDS011;42646;51.910;7.724;2023-11-21T01:48:52;14.38;;;9.38;;
39264;SDS011;42646;51.910;7.724;2023-11-21T01:51:21;13.75;;;10.27;;
39264;SDS011;42646;51.910;7.724;2023-11-21T01:53:49;13.57;;;9.20;;
39264;SDS011;42646;51.910;7.724;2023-11-21T01:56:17;12.75;;;9.30;;
39264;SDS011;42646;51.910;7.724;2023-11-21T01:58:46;15.05;;;9.70;;
39264;SDS011;42646;51.910;7.724;2023-11-21T02:01:14;16.02;;;10.25;;
39264;SDS011;42646;51.910;7.724;2023-11-21T02:03:41;13.82;;;8.90;;
39264;SDS011;42646;51.910;7.724;2023-11-21T02:06:09;13.70;;;9.35;;
39264;SDS011;42646;51.910;7.724;2023-11-21T02:08:37;14.27;;;9.95;;
39264;SDS011;42646;51.910;7.724;2023-11-21T02:11:05;14.90;;;10.40;;
39264;SDS011;42646;51.910;7.724;2023-11-21T02:13:33;15.25;;;10.27;;
39264;SDS011;42646;51.910;7.724;2023-11-21T02:16:02;14.55;;;10.30;;
39264;SDS011;42646;51.910;7.724;2023-11-21T02:18:31;16.87;;;10.33;;
39264;SDS011;42646;51.910;7.724;2023-11-21T02:21:00;14.02;;;9.98;;
39264;SDS011;42646;51.910;7.724;2023-11-21T02:23:30;16.75;;;10.38;;
39264;SDS011;42646;51.910;7.724;2023-11-21T02:25:58;14.73;;;10.18;;
39264;SDS011;42646;51.910;7.724;2023-11-21T02:28:30;16.02;;;10.73;;
39264;SDS011;42646;51.910;7.724;2023-11-21T02:30:59;16.13;;;10.45;;
39264;SDS011;42646;51.910;7.724;2023-11-21T02:33:29;14.25;;;10.05;;
39264;SDS011;42646;51.910;7.724;2023-11-21T02:36:00;14.30;;;10.07;;
39264;SDS011;42646;51.910;7.724;2023-11-21T02:38:28;14.95;;;10.25;;
39264;SDS011;42646;51.910;7.724;2023-11-21T02:40:58;15.05;;;10.00;;
39264;SDS011;42646;51.910;7.724;2023-11-21T02:43:26;13.32;;;9.20;;
39264;SDS011;42646;51.910;7.724;2023-11-21T02:45:54;12.52;;;8.75;;
39264;SDS011;42646;51.910;7.724;2023-11-21T02:48:21;14.27;;;9.52;;
39264;SDS011;42646;51.910;7.724;2023-11-21T02:50:50;12.25;;;8.95;;
39264;SDS011;42646;51.910;7.724;2023-11-21T02:53:19;18.45;;;10.48;;
39264;SDS011;42646;51.910;7.724;2023-11-21T02:55:47;13.68;;;9.48;;
39264;SDS011;42646;51.910;7.724;2023-11-21T02:58:16;12.82;;;9.25;;
39264;SDS011;42646;51.910;7.724;2023-11-21T03:00:44;14.45;;;9.70;;
39264;SDS011;42646;51.910;7.724;2023-11-21T03:03:12;14.30;;;9.88;;
39264;SDS011;42646;51.910;7.724;2023-11-21T03:05:41;16.80;;;11.00;;
39264;SDS011;42646;51.910;7.724;2023-11-21T03:08:09;13.80;;;10.25;;
39264;SDS011;42646;51.910;7.724;2023-11-21T03:10:37;12.73;;;9.57;;
39264;SDS011;42646;51.910;7.724;2023-11-21T03:13:04;13.55;;;9.02;;
39264;SDS011;42646;51.910;7.724;2023-11-21T03:15:33;15.00;;;10.32;;
39264;SDS011;42646;51.910;7.724;2023-11-21T03:18:01;16.15;;;10.38;;
39264;SDS011;42646;51.910;7.724;2023-11-21T03:20:29;14.68;;;9.60;;
39264;SDS011;42646;51.910;7.724;2023-11-21T03:22:57;14.95;;;9.90;;
39264;SDS011;42646;51.910;7.724;2023-11-21T03:25:26;15.70;;;10.65;;
39264;SDS011;42646;51.910;7.724;2023-11-21T03:27:55;13.10;;;9.57;;
39264;SDS011;42646;51.910;7.724;2023-11-21T03:30:23;13.35;;;9.15;;
39264;SDS011;42646;51.910;7.724;2023-11-21T03:32:52;14.30;;;9.00;;
39264;SDS011;42646;51.910;7.724;2023-11-21T03:35:19;16.60;;;10.15;;
39264;SDS011;42646;51.910;7.724;2023-11-21T03:37:48;14.02;;;9.45;;
39264;SDS011;42646;51.910;7.724;2023-11-21T03:40:16;14.82;;;9.63;;
39264;SDS011;42646;51.910;7.724;2023-11-21T03:42:43;13.48;;;9.10;;
39264;SDS011;42646;51.910;7.724;2023-11-21T03:45:11;15.57;;;9.90;;
39264;SDS011;42646;51.910;7.724;2023-11-21T03:47:39;15.32;;;9.27;;
39264;SDS011;42646;51.910;7.724;2023-11-21T03:50:09;14.05;;;8.93;;
39264;SDS011;42646;51.910;7.724;2023-11-21T03:52:37;14.82;;;9.27;;
39264;SDS011;42646;51.910;7.724;2023-11-21T03:55:04;13.30;;;8.93;;
39264;SDS011;42646;51.910;7.724;2023-11-21T03:57:32;13.60;;;9.20;;
39264;SDS011;42646;51.910;7.724;2023-11-21T04:00:00;13.70;;;9.05;;
39264;SDS011;42646;51.910;7.724;2023-11-21T04:02:37;14.10;;;9.65;;
39264;SDS011;42646;51.910;7.724;2023-11-21T04:05:06;16.85;;;10.15;;
39264;SDS011;42646;51.910;7.724;2023-11-21T04:07:35;12.80;;;9.23;;
39264;SDS011;42646;51.910;7.724;2023-11-21T04:10:04;14.48;;;10.05;;
39264;SDS011;42646;51.910;7.724;2023-11-21T04:12:34;16.85;;;10.57;;
39264;SDS011;42646;51.910;7.724;2023-11-21T04:15:02;17.55;;;10.65;;
39264;SDS011;42646;51.910;7.724;2023-11-21T04:17:30;18.00;;;10.60;;
39264;SDS011;42646;51.910;7.724;2023-11-21T04:19:58;18.38;;;10.43;;
39264;SDS011;42646;51.910;7.724;2023-11-21T04:22:26;19.63;;;11.60;;
39264;SDS011;42646;51.910;7.724;2023-11-21T04:24:55;17.02;;;10.85;;
39264;SDS011;42646;51.910;7.724;2023-11-21T04:27:23;16.67;;;10.43;;
39264;SDS011;42646;51.910;7.724;2023-11-21T04:29:50;17.15;;;10.52;;
39264;SDS011;42646;51.910;7.724;2023-11-21T04:32:18;17.38;;;9.95;;
39264;SDS011;42646;51.910;7.724;2023-11-21T04:34:45;17.98;;;10.05;;
39264;SDS011;42646;51.910;7.724;2023-11-21T04:37:13;15.93;;;10.15;;
39264;SDS011;42646;51.910;7.724;2023-11-21T04:39:41;18.60;;;10.88;;
39264;SDS011;42646;51.910;7.724;2023-11-21T04:42:10;15.52;;;9.73;;
39264;SDS011;42646;51.910;7.724;2023-11-21T04:44:38;16.50;;;10.65;;
39264;SDS011;42646;51.910;7.724;2023-11-21T04:47:07;16.08;;;10.00;;
39264;SDS011;42646;51.910;7.724;2023-11-21T04:49:35;17.25;;;9.98;;
39264;SDS011;42646;51.910;7.724;2023-11-21T04:52:02;16.63;;;9.55;;
39264;SDS011;42646;51.910;7.724;2023-11-21T04:54:31;16.75;;;10.27;;
39264;SDS011;42646;51.910;7.724;2023-11-21T04:56:58;16.15;;;9.30;;
39264;SDS011;42646;51.910;7.724;2023-11-21T04:59:28;14.95;;;9.05;;
39264;SDS011;42646;51.910;7.724;2023-11-21T05:01:55;15.98;;;9.65;;
39264;SDS011;42646;51.910;7.724;2023-11-21T05:04:23;16.15;;;10.38;;
39264;SDS011;42646;51.910;7.724;2023-11-21T05:06:51;13.73;;;8.88;;
39264;SDS011;42646;51.910;7.724;2023-11-21T05:09:19;15.93;;;9.63;;
39264;SDS011;42646;51.910;7.724;2023-11-21T05:11:48;16.95;;;9.95;;
39264;SDS011;42646;51.910;7.724;2023-11-21T05:14:16;18.00;;;10.18;;
39264;SDS011;42646;51.910;7.724;2023-11-21T05:16:46;19.67;;;10.93;;
39264;SDS011;42646;51.910;7.724;2023-11-21T05:19:14;17.92;;;10.80;;
39264;SDS011;42646;51.910;7.724;2023-11-21T05:21:41;19.70;;;11.75;;
39264;SDS011;42646;51.910;7.724;2023-11-21T05:24:09;19.48;;;11.93;;
39264;SDS011;42646;51.910;7.724;2023-11-21T05:26:37;23.13;;;12.52;;
39264;SDS011;42646;51.910;7.724;2023-11-21T05:29:05;24.25;;;12.27;;
39264;SDS011;42646;51.910;7.724;2023-11-21T05:31:33;24.95;;;13.38;;
39264;SDS011;42646;51.910;7.724;2023-11-21T05:34:02;26.67;;;13.85;;
39264;SDS011;42646;51.910;7.724;2023-11-21T05:36:31;26.02;;;14.15;;
39264;SDS011;42646;51.910;7.724;2023-11-21T05:38:59;27.05;;;14.02;;
39264;SDS011;42646;51.910;7.724;2023-11-21T05:41:26;25.67;;;14.05;;
39264;SDS011;42646;51.910;7.724;2023-11-21T05:43:54;26.85;;;13.38;;
39264;SDS011;42646;51.910;7.724;2023-11-21T05:46:21;25.27;;;13.75;;
39264;SDS011;42646;51.910;7.724;2023-11-21T05:48:49;26.65;;;14.15;;
39264;SDS011;42646;51.910;7.724;2023-11-21T05:51:18;24.83;;;12.90;;
39264;SDS011;42646;51.910;7.724;2023-11-21T05:53:46;23.92;;;13.57;;
39264;SDS011;42646;51.910;7.724;2023-11-21T05:56:13;23.25;;;14.50;;
39264;SDS011;42646;51.910;7.724;2023-11-21T05:58:41;22.92;;;13.43;;
39264;SDS011;42646;51.910;7.724;2023-11-21T06:01:09;26.65;;;14.82;;
39264;SDS011;42646;51.910;7.724;2023-11-21T06:03:39;25.40;;;13.38;;
39264;SDS011;42646;51.910;7.724;2023-11-21T06:06:07;24.77;;;12.88;;
39264;SDS011;42646;51.910;7.724;2023-11-21T06:08:36;28.55;;;15.32;;
39264;SDS011;42646;51.910;7.724;2023-11-21T06:11:04;25.48;;;13.80;;
39264;SDS011;42646;51.910;7.724;2023-11-21T06:13:32;25.23;;;14.02;;
39264;SDS011;42646;51.910;7.724;2023-11-21T06:15:59;23.48;;;13.55;;
39264;SDS011;42646;51.910;7.724;2023-11-21T06:18:27;23.40;;;13.00;;
39264;SDS011;42646;51.910;7.724;2023-11-21T06:20:55;24.02;;;12.98;;
39264;SDS011;42646;51.910;7.724;2023-11-21T06:23:23;20.65;;;12.68;;
39264;SDS011;42646;51.910;7.724;2023-11-21T06:25:52;24.00;;;12.75;;
39264;SDS011;42646;51.910;7.724;2023-11-21T06:28:20;25.80;;;13.93;;
39264;SDS011;42646;51.910;7.724;2023-11-21T06:30:47;23.95;;;12.82;;
39264;SDS011;42646;51.910;7.724;2023-11-21T06:33:17;26.50;;;14.07;;
39264;SDS011;42646;51.910;7.724;2023-11-21T06:35:44;23.17;;;12.93;;
39264;SDS011;42646;51.910;7.724;2023-11-21T06:38:12;25.33;;;13.52;;
39264;SDS011;42646;51.910;7.724;2023-11-21T06:40:40;25.35;;;12.75;;
39264;SDS011;42646;51.910;7.724;2023-11-21T06:43:09;22.48;;;12.77;;
39264;SDS011;42646;51.910;7.724;2023-11-21T06:45:36;23.45;;;12.88;;
39264;SDS011;42646;51.910;7.724;2023-11-21T06:48:04;25.42;;;13.98;;
39264;SDS011;42646;51.910;7.724;2023-11-21T06:50:32;24.77;;;13.93;;
39264;SDS011;42646;51.910;7.724;2023-11-21T06:53:00;28.45;;;14.32;;
39264;SDS011;42646;51.910;7.724;2023-11-21T06:55:31;28.42;;;14.40;;
39264;SDS011;42646;51.910;7.724;2023-11-21T06:57:59;26.10;;;14.20;;
39264;SDS011;42646;51.910;7.724;2023-11-21T07:00:28;27.33;;;13.05;;
39264;SDS011;42646;51.910;7.724;2023-11-21T07:02:56;26.27;;;13.55;;
39264;SDS011;42646;51.910;7.724;2023-11-21T07:05:24;26.25;;;13.35;;
39264;SDS011;42646;51.910;7.724;2023-11-21T07:07:52;28.50;;;14.25;;
39264;SDS011;42646;51.910;7.724;2023-11-21T07:10:20;25.02;;;12.82;;
39264;SDS011;42646;51.910;7.724;2023-11-21T07:12:48;26.33;;;13.20;;
39264;SDS011;42646;51.910;7.724;2023-11-21T07:15:17;25.45;;;13.68;;
39264;SDS011;42646;51.910;7.724;2023-11-21T07:17:47;28.17;;;13.23;;
39264;SDS011;42646;51.910;7.724;2023-11-21T07:20:15;26.92;;;13.85;;
39264;SDS011;42646;51.910;7.724;2023-11-21T07:22:43;28.05;;;14.07;;
39264;SDS011;42646;51.910;7.724;2023-11-21T07:25:11;28.30;;;13.80;;
39264;SDS011;42646;51.910;7.724;2023-11-21T07:27:39;27.38;;;14.52;;
39264;SDS011;42646;51.910;7.724;2023-11-21T07:30:07;29.30;;;14.52;;
39264;SDS011;42646;51.910;7.724;2023-11-21T07:32:36;25.55;;;13.25;;
39264;SDS011;42646;51.910;7.724;2023-11-21T07:35:08;28.50;;;13.45;;
39264;SDS011;42646;51.910;7.724;2023-11-21T07:37:36;28.75;;;14.63;;
39264;SDS011;42646;51.910;7.724;2023-11-21T07:40:05;27.48;;;14.20;;
39264;SDS011;42646;51.910;7.724;2023-11-21T07:42:34;27.40;;;13.57;;
39264;SDS011;42646;51.910;7.724;2023-11-21T07:45:02;28.33;;;13.73;;
39264;SDS011;42646;51.910;7.724;2023-11-21T07:47:30;27.33;;;13.63;;
39264;SDS011;42646;51.910;7.724;2023-11-21T07:50:01;30.02;;;14.70;;
39264;SDS011;42646;51.910;7.724;2023-11-21T07:52:31;28.75;;;14.18;;
39264;SDS011;42646;51.910;7.724;2023-11-21T07:54:59;29.50;;;14.13;;
39264;SDS011;42646;51.910;7.724;2023-11-21T07:57:27;30.58;;;15.73;;
39264;SDS011;42646;51.910;7.724;2023-11-21T07:59:55;28.33;;;13.60;;
39264;SDS011;42646;51.910;7.724;2023-11-21T08:02:23;31.95;;;14.65;;
39264;SDS011;42646;51.910;7.724;2023-11-21T08:04:52;30.08;;;15.10;;
39264;SDS011;42646;51.910;7.724;2023-11-21T08:07:20;30.70;;;15.55;;
39264;SDS011;42646;51.910;7.724;2023-11-21T08:09:49;31.83;;;14.77;;
39264;SDS011;42646;51.910;7.724;2023-11-21T08:12:17;29.83;;;14.07;;
39264;SDS011;42646;51.910;7.724;2023-11-21T08:14:46;30.15;;;13.77;;
39264;SDS011;42646;51.910;7.724;2023-11-21T08:17:14;29.98;;;14.05;;
39264;SDS011;42646;51.910;7.724;2023-11-21T08:19:44;27.65;;;13.65;;
39264;SDS011;42646;51.910;7.724;2023-11-21T08:22:15;29.38;;;13.77;;
39264;SDS011;42646;51.910;7.724;2023-11-21T08:24:44;29.20;;;14.00;;
39264;SDS011;42646;51.910;7.724;2023-11-21T08:27:14;26.50;;;13.98;;
39264;SDS011;42646;51.910;7.724;2023-11-21T08:29:42;26.65;;;13.43;;
39264;SDS011;42646;51.910;7.724;2023-11-21T08:32:10;31.52;;;14.65;;
39264;SDS011;42646;51.910;7.724;2023-11-21T08:34:38;29.73;;;14.20;;
39264;SDS011;42646;51.910;7.724;2023-11-21T08:37:09;33.67;;;15.85;;
39264;SDS011;42646;51.910;7.724;2023-11-21T08:39:37;33.97;;;15.32;;
39264;SDS011;42646;51.910;7.724;2023-11-21T08:42:04;32.08;;;14.88;;
39264;SDS011;42646;51.910;7.724;2023-11-21T08:44:34;31.17;;;14.73;;
39264;SDS011;42646;51.910;7.724;2023-11-21T08:47:01;36.75;;;16.15;;
39264;SDS011;42646;51.910;7.724;2023-11-21T08:49:33;32.17;;;16.02;;
39264;SDS011;42646;51.910;7.724;2023-11-21T08:52:01;34.65;;;15.13;;
39264;SDS011;42646;51.910;7.724;2023-11-21T08:54:31;30.90;;;14.98;;
39264;SDS011;42646;51.910;7.724;2023-11-21T08:57:00;32.90;;;16.33;;
39264;SDS011;42646;51.910;7.724;2023-11-21T08:59:28;31.23;;;15.60;;
39264;SDS011;42646;51.910;7.724;2023-11-21T09:01:57;32.35;;;15.05;;
39264;SDS011;42646;51.910;7.724;2023-11-21T09:04:25;27.95;;;13.65;;
39264;SDS011;42646;51.910;7.724;2023-11-21T09:06:53;29.90;;;14.57;;
39264;SDS011;42646;51.910;7.724;2023-11-21T09:09:21;33.90;;;16.05;;
39264;SDS011;42646;51.910;7.724;2023-11-21T09:11:50;29.77;;;14.90;;
39264;SDS011;42646;51.910;7.724;2023-11-21T09:14:18;31.33;;;14.32;;
39264;SDS011;42646;51.910;7.724;2023-11-21T09:16:46;28.90;;;14.25;;
39264;SDS011;42646;51.910;7.724;2023-11-21T09:19:15;27.45;;;14.82;;
39264;SDS011;42646;51.910;7.724;2023-11-21T09:21:43;25.55;;;13.75;;
39264;SDS011;42646;51.910;7.724;2023-11-21T09:24:11;30.02;;;14.13;;
39264;SDS011;42646;51.910;7.724;2023-11-21T09:26:38;29.48;;;13.93;;
39264;SDS011;42646;51.910;7.724;2023-11-21T09:29:06;29.77;;;13.65;;
39264;SDS011;42646;51.910;7.724;2023-11-21T09:31:34;28.38;;;14.35;;
39264;SDS011;42646;51.910;7.724;2023-11-21T09:34:02;27.55;;;13.07;;
39264;SDS011;42646;51.910;7.724;2023-11-21T09:36:31;24.85;;;13.20;;
39264;SDS011;42646;51.910;7.724;2023-11-21T09:39:00;25.30;;;12.27;;
39264;SDS011;42646;51.910;7.724;2023-11-21T09:41:30;21.88;;;11.18;;
39264;SDS011;42646;51.910;7.724;2023-11-21T09:44:05;23.27;;;12.00;;
39264;SDS011;42646;51.910;7.724;2023-11-21T09:46:40;25.35;;;11.85;;
39264;SDS011;42646;51.910;7.724;2023-11-21T09:49:09;22.75;;;11.88;;
39264;SDS011;42646;51.910;7.724;2023-11-21T09:51:42;23.00;;;11.88;;
39264;SDS011;42646;51.910;7.724;2023-11-21T09:54:10;20.80;;;10.87;;
39264;SDS011;42646;51.910;7.724;2023-11-21T09:56:39;20.50;;;9.82;;
39264;SDS011;42646;51.910;7.724;2023-11-21T09:59:09;22.33;;;10.32;;
39264;SDS011;42646;51.910;7.724;2023-11-21T10:01:42;18.33;;;10.32;;
39264;SDS011;42646;51.910;7.724;2023-11-21T10:04:10;17.70;;;9.25;;
39264;SDS011;42646;51.910;7.724;2023-11-21T10:06:39;16.60;;;9.05;;
39264;SDS011;42646;51.910;7.724;2023-11-21T10:09:09;15.75;;;8.88;;
39264;SDS011;42646;51.910;7.724;2023-11-21T10:11:39;17.98;;;9.15;;
39264;SDS011;42646;51.910;7.724;2023-11-21T10:14:08;15.70;;;8.65;;
39264;SDS011;42646;51.910;7.724;2023-11-21T10:16:39;17.55;;;9.23;;
39264;SDS011;42646;51.910;7.724;2023-11-21T10:19:08;15.68;;;9.10;;
39264;SDS011;42646;51.910;7.724;2023-11-21T10:21:41;15.02;;;9.25;;
39264;SDS011;42646;51.910;7.724;2023-11-21T10:24:09;15.98;;;8.75;;
39264;SDS011;42646;51.910;7.724;2023-11-21T10:26:38;17.83;;;10.20;;
39264;SDS011;42646;51.910;7.724;2023-11-21T10:29:18;17.90;;;9.57;;
39264;SDS011;42646;51.910;7.724;2023-11-21T10:31:49;18.10;;;9.70;;
39264;SDS011;42646;51.910;7.724;2023-11-21T10:34:18;17.40;;;9.93;;
39264;SDS011;42646;51.910;7.724;2023-11-21T10:36:48;19.65;;;10.15;;
39264;SDS011;42646;51.910;7.724;2023-11-21T10:39:16;17.88;;;10.30;;
39264;SDS011;42646;51.910;7.724;2023-11-21T10:41:45;16.02;;;8.95;;
39264;SDS011;42646;51.910;7.724;2023-11-21T10:44:14;15.07;;;8.77;;
39264;SDS011;42646;51.910;7.724;2023-11-21T10:46:46;15.60;;;8.70;;
39264;SDS011;42646;51.910;7.724;2023-11-21T10:49:17;17.67;;;9.25;;
39264;SDS011;42646;51.910;7.724;2023-11-21T10:51:45;13.80;;;8.43;;
39264;SDS011;42646;51.910;7.724;2023-11-21T10:54:18;17.42;;;9.43;;
39264;SDS011;42646;51.910;7.724;2023-11-21T10:56:46;15.88;;;8.95;;
39264;SDS011;42646;51.910;7.724;2023-11-21T10:59:17;14.18;;;8.70;;
39264;SDS011;42646;51.910;7.724;2023-11-21T11:01:47;14.40;;;8.30;;
39264;SDS011;42646;51.910;7.724;2023-11-21T11:04:17;19.52;;;10.07;;
39264;SDS011;42646;51.910;7.724;2023-11-21T11:06:48;16.40;;;9.57;;
39264;SDS011;42646;51.910;7.724;2023-11-21T11:09:21;16.25;;;8.85;;
39264;SDS011;42646;51.910;7.724;2023-11-21T11:11:49;14.63;;;8.85;;
39264;SDS011;42646;51.910;7.724;2023-11-21T11:14:19;15.50;;;8.80;;
39264;SDS011;42646;51.910;7.724;2023-11-21T11:16:53;15.68;;;9.07;;
39264;SDS011;42646;51.910;7.724;2023-11-21T11:19:21;13.85;;;7.97;;
39264;SDS011;42646;51.910;7.724;2023-11-21T11:21:53;16.58;;;8.85;;
39264;SDS011;42646;51.910;7.724;2023-11-21T11:24:33;14.67;;;8.87;;
39264;SDS011;42646;51.910;7.724;2023-11-21T11:27:15;15.50;;;8.50;;
39264;SDS011;42646;51.910;7.724;2023-11-21T11:29:54;14.18;;;7.82;;
39264;SDS011;42646;51.910;7.724;2023-11-21T11:32:36;14.15;;;7.80;;
39264;SDS011;42646;51.910;7.724;2023-11-21T11:35:12;11.60;;;7.10;;
39264;SDS011;42646;51.910;7.724;2023-11-21T11:37:46;10.73;;;6.82;;
39264;SDS011;42646;51.910;7.724;2023-11-21T11:40:14;13.95;;;7.65;;
39264;SDS011;42646;51.910;7.724;2023-11-21T11:42:54;12.07;;;6.78;;
39264;SDS011;42646;51.910;7.724;2023-11-21T11:45:24;11.02;;;6.45;;
39264;SDS011;42646;51.910;7.724;2023-11-21T11:48:00;11.35;;;6.55;;
39264;SDS011;42646;51.910;7.724;2023-11-21T11:50:28;11.68;;;6.78;;
39264;SDS011;42646;51.910;7.724;2023-11-21T11:53:11;10.35;;;6.68;;
39264;SDS011;42646;51.910;7.724;2023-11-21T11:55:39;11.23;;;7.47;;
39264;SDS011;42646;51.910;7.724;2023-11-21T11:58:07;11.32;;;6.95;;
39264;SDS011;42646;51.910;7.724;2023-11-21T12:00:35;10.45;;;6.22;;
39264;SDS011;42646;51.910;7.724;2023-11-21T12:03:08;11.50;;;6.68;;
39264;SDS011;42646;51.910;7.724;2023-11-21T12:05:36;10.68;;;6.47;;
39264;SDS011;42646;51.910;7.724;2023-11-21T12:08:07;11.55;;;6.72;;
39264;SDS011;42646;51.910;7.724;2023-11-21T12:10:36;10.98;;;5.82;;
39264;SDS011;42646;51.910;7.724;2023-11-21T12:13:06;9.70;;;5.50;;
39264;SDS011;42646;51.910;7.724;2023-11-21T12:15:35;8.63;;;5.75;;
39264;SDS011;42646;51.910;7.724;2023-11-21T12:18:04;8.20;;;5.72;;
39264;SDS011;42646;51.910;7.724;2023-11-21T12:20:32;8.02;;;5.18;;
39264;SDS011;42646;51.910;7.724;2023-11-21T12:23:05;8.60;;;5.10;;
39264;SDS011;42646;51.910;7.724;2023-11-21T12:25:36;8.50;;;5.50;;
39264;SDS011;42646;51.910;7.724;2023-11-21T12:28:06;6.40;;;4.60;;
39264;SDS011;42646;51.910;7.724;2023-11-21T12:30:34;7.07;;;4.70;;
39264;SDS011;42646;51.910;7.724;2023-11-21T12:33:05;6.53;;;4.47;;
39264;SDS011;42646;51.910;7.724;2023-11-21T12:35:35;6.30;;;4.50;;
39264;SDS011;42646;51.910;7.724;2023-11-21T12:38:04;7.00;;;4.47;;
39264;SDS011;42646;51.910;7.724;2023-11-21T12:40:32;6.90;;;5.03;;
39264;SDS011;42646;51.910;7.724;2023-11-21T12:43:02;7.53;;;5.28;;
39264;SDS011;42646;51.910;7.724;2023-11-21T12:45:31;6.80;;;5.03;;
39264;SDS011;42646;51.910;7.724;2023-11-21T12:48:00;6.97;;;4.80;;
39264;SDS011;42646;51.910;7.724;2023-11-21T12:50:33;8.73;;;6.20;;
39264;SDS011;42646;51.910;7.724;2023-11-21T12:53:04;8.27;;;5.80;;
39264;SDS011;42646;51.910;7.724;2023-11-21T12:55:35;8.65;;;5.97;;
39264;SDS011;42646;51.910;7.724;2023-11-21T12:58:06;9.02;;;6.35;;
39264;SDS011;42646;51.910;7.724;2023-11-21T13:00:38;9.98;;;6.85;;
39264;SDS011;42646;51.910;7.724;2023-11-21T13:03:09;9.23;;;6.57;;
39264;SDS011;42646;51.910;7.724;2023-11-21T13:05:42;8.95;;;6.53;;
39264;SDS011;42646;51.910;7.724;2023-11-21T13:08:14;9.18;;;6.25;;
39264;SDS011;42646;51.910;7.724;2023-11-21T13:13:17;8.95;;;6.40;;
39264;SDS011;42646;51.910;7.724;2023-11-21T13:15:50;9.05;;;7.00;;
39264;SDS011;42646;51.910;7.724;2023-11-21T13:18:21;10.15;;;7.53;;
39264;SDS011;42646;51.910;7.724;2023-11-21T13:20:50;10.63;;;7.95;;
39264;SDS011;42646;51.910;7.724;2023-11-21T13:23:18;11.07;;;8.07;;
39264;SDS011;42646;51.910;7.724;2023-11-21T13:25:47;11.98;;;8.68;;
39264;SDS011;42646;51.910;7.724;2023-11-21T13:28:28;11.35;;;7.57;;
39264;SDS011;42646;51.910;7.724;2023-11-21T13:30:59;11.63;;;8.07;;
39264;SDS011;42646;51.910;7.724;2023-11-21T13:33:36;11.07;;;8.20;;
39264;SDS011;42646;51.910;7.724;2023-11-21T13:36:05;10.60;;;7.80;;
39264;SDS011;42646;51.910;7.724;2023-11-21T13:38:36;10.82;;;8.20;;
39264;SDS011;42646;51.910;7.724;2023-11-21T13:43:38;10.65;;;7.75;;
39264;SDS011;42646;51.910;7.724;2023-11-21T13:46:05;10.73;;;7.28;;
39264;SDS011;42646;51.910;7.724;2023-11-21T13:48:40;10.07;;;7.60;;
39264;SDS011;42646;51.910;7.724;2023-11-21T13:51:09;11.60;;;7.97;;
39264;SDS011;42646;51.910;7.724;2023-11-21T13:53:43;12.00;;;8.68;;
39264;SDS011;42646;51.910;7.724;2023-11-21T13:56:13;10.90;;;7.72;;
39264;SDS011;42646;51.910;7.724;2023-11-21T13:58:47;12.95;;;8.15;;
39264;SDS011;42646;51.910;7.724;2023-11-21T14:01:18;12.48;;;8.05;;
39264;SDS011;42646;51.910;7.724;2023-11-21T14:04:11;11.50;;;7.85;;
39264;SDS011;42646;51.910;7.724;2023-11-21T14:06:46;10.82;;;8.02;;
39264;SDS011;42646;51.910;7.724;2023-11-21T14:09:18;12.48;;;8.20;;
39264;SDS011;42646;51.910;7.724;2023-11-21T14:11:51;11.82;;;8.38;;
39264;SDS011;42646;51.910;7.724;2023-11-21T14:14:21;12.27;;;7.70;;
39264;SDS011;42646;51.910;7.724;2023-11-21T14:16:51;11.93;;;8.68;;
39264;SDS011;42646;51.910;7.724;2023-11-21T14:19:19;11.00;;;7.68;;
39264;SDS011;42646;51.910;7.724;2023-11-21T14:21:47;13.25;;;8.68;;
39264;SDS011;42646;51.910;7.724;2023-11-21T14:24:15;10.60;;;6.25;;
39264;SDS011;42646;51.910;7.724;2023-11-21T14:26:44;9.30;;;6.50;;
39264;SDS011;42646;51.910;7.724;2023-11-21T14:29:14;9.13;;;6.55;;
39264;SDS011;42646;51.910;7.724;2023-11-21T14:31:47;9.05;;;6.18;;
39264;SDS011;42646;51.910;7.724;2023-11-21T14:34:17;7.75;;;6.15;;
39264;SDS011;42646;51.910;7.724;2023-11-21T14:36:48;9.27;;;6.53;;
39264;SDS011;42646;51.910;7.724;2023-11-21T14:39:16;9.25;;;6.57;;
39264;SDS011;42646;51.910;7.724;2023-11-21T14:41:49;8.90;;;6.82;;
39264;SDS011;42646;51.910;7.724;2023-11-21T14:44:18;9.43;;;6.35;;
39264;SDS011;42646;51.910;7.724;2023-11-21T14:46:48;11.25;;;7.50;;